Pythagoras — C6ZO4 — position and weather

sailwx.info

Track history (hours):
 
Tides and Currents Weather Stations Pressure Air Temp Water Temp Dewpoint Dewpoint Depression Visibility Wind Speed Wind Dir Waves Ship Positions

Pythagoras

Last reported at 2017-Jun-16 05:54 UTC. Time now 2017-Jul-26 18:40 UTC.
Position N 01°15' E 104°13'.
Warning: this ship's position is 40 days out of date.

Length 190 m; draft 6.4 m.

Type: Cargo ship. MMSI: 311061300.

Date/timePositionNaut miles runAvg speedWind from/ knotsBaromVisibWave heightAir tempDewpointWater temp
2017-Jun-16 05:54N 01°15' E 104°13'614.6
2017-Jun-16 05:30N 01°15' E 104°07'713.6
2017-Jun-16 05:00N 01°14' E 104°01'510.8
2017-Jun-16 04:30N 01°14' E 103°55'2 4.2
2017-Jun-16 04:00N 01°15' E 103°53'0 0.3
2017-Jun-16 03:27N 01°15' E 103°53'0 0.0
2017-Jun-16 03:00N 01°15' E 103°53'0 0.1
2017-Jun-16 02:27N 01°15' E 103°53'0 0.1
2017-Jun-16 02:00N 01°15' E 103°53'0 0.1
2017-Jun-16 01:30N 01°15' E 103°53'0 0.0
2017-Jun-16 00:57N 01°15' E 103°53'0 0.1
2017-Jun-16 00:30N 01°15' E 103°53'0 0.1
2017-Jun-15 23:51N 01°15' E 103°53'0 0.0
2017-Jun-15 23:27N 01°15' E 103°53'0 0.0
2017-Jun-15 22:57N 01°15' E 103°53'0 0.0
2017-Jun-15 22:30N 01°15' E 103°53'0 0.1
2017-Jun-15 22:00N 01°15' E 103°53'0 0.0
2017-Jun-15 21:27N 01°15' E 103°53'0 0.0
2017-Jun-15 20:57N 01°15' E 103°53'0 0.0
2017-Jun-15 20:30N 01°15' E 103°53'0 0.0
2017-Jun-15 20:00N 01°15' E 103°53'0 0.0
2017-Jun-15 19:27N 01°15' E 103°53'0 0.0
2017-Jun-15 19:00N 01°15' E 103°53'0 0.2
2017-Jun-15 18:30N 01°15' E 103°53'0 0.2
2017-Jun-15 17:57N 01°15' E 103°53'0 0.1
2017-Jun-15 17:30N 01°15' E 103°53'0 0.1
2017-Jun-15 16:39N 01°15' E 103°53'0 0.0
2017-Jun-15 16:18N 01°15' E 103°53'0 0.0
2017-Jun-15 15:51N 01°15' E 103°53'0 0.0
2017-Jun-15 15:27N 01°15' E 103°53'0 0.0
2017-Jun-15 14:54N 01°15' E 103°53'0 0.0
2017-Jun-15 14:30N 01°15' E 103°53'1 0.9
2017-Jun-15 13:30N 01°14' E 103°53'2 3.5
2017-Jun-15 13:00N 01°12' E 103°53'3 6.9
2017-Jun-15 12:30N 01°11' E 103°50'3 6.2
2017-Jun-15 12:00N 01°09' E 103°47'3 6.4
2017-Jun-15 11:30N 01°07' E 103°45'4 7.3
2017-Jun-15 11:00N 01°04' E 103°42'4 8.4
2017-Jun-15 10:30N 01°03' E 103°38'510.0
2017-Jun-15 10:00N 01°05' E 103°34'611.1
2017-Jun-15 09:29N 01°08' E 103°29'713.5
2017-Jun-15 09:00N 01°12' E 103°24'6714.3
2017-Jun-15 04:18N 01°48' E 102°27'516.2
2017-Jun-15 03:59N 01°50' E 102°22'  
Track history (hours):
 
Tides and Currents Weather Stations Pressure Air Temp Water Temp Dewpoint Dewpoint Depression Visibility Wind Speed Wind Dir Waves Ship Positions

Pythagoras

Last reported at 2017-Jun-16 05:54 UTC. Time now 2017-Jul-26 18:40 UTC.
Position N 01°15' E 104°13'.
Warning: this ship's position is 40 days out of date.

Length 190 m; draft 6.4 m.

Type: Cargo ship. MMSI: 311061300.

Date/timePositionNaut miles runAvg speedWind from/ knotsBaromVisibWave heightAir tempDewpointWater temp
2017-Jun-16 05:54N 01°15' E 104°13'614.6
2017-Jun-16 05:30N 01°15' E 104°07'713.6
2017-Jun-16 05:00N 01°14' E 104°01'510.8
2017-Jun-16 04:30N 01°14' E 103°55'2 4.2
2017-Jun-16 04:00N 01°15' E 103°53'0 0.3
2017-Jun-16 03:27N 01°15' E 103°53'0 0.0
2017-Jun-16 03:00N 01°15' E 103°53'0 0.1
2017-Jun-16 02:27N 01°15' E 103°53'0 0.1
2017-Jun-16 02:00N 01°15' E 103°53'0 0.1
2017-Jun-16 01:30N 01°15' E 103°53'0 0.0
2017-Jun-16 00:57N 01°15' E 103°53'0 0.1
2017-Jun-16 00:30N 01°15' E 103°53'0 0.1
2017-Jun-15 23:51N 01°15' E 103°53'0 0.0
2017-Jun-15 23:27N 01°15' E 103°53'0 0.0
2017-Jun-15 22:57N 01°15' E 103°53'0 0.0
2017-Jun-15 22:30N 01°15' E 103°53'0 0.1
2017-Jun-15 22:00N 01°15' E 103°53'0 0.0
2017-Jun-15 21:27N 01°15' E 103°53'0 0.0
2017-Jun-15 20:57N 01°15' E 103°53'0 0.0
2017-Jun-15 20:30N 01°15' E 103°53'0 0.0
2017-Jun-15 20:00N 01°15' E 103°53'0 0.0
2017-Jun-15 19:27N 01°15' E 103°53'0 0.0
2017-Jun-15 19:00N 01°15' E 103°53'0 0.2
2017-Jun-15 18:30N 01°15' E 103°53'0 0.2
2017-Jun-15 17:57N 01°15' E 103°53'0 0.1
2017-Jun-15 17:30N 01°15' E 103°53'0 0.1
2017-Jun-15 16:39N 01°15' E 103°53'0 0.0
2017-Jun-15 16:18N 01°15' E 103°53'0 0.0
2017-Jun-15 15:51N 01°15' E 103°53'0 0.0
2017-Jun-15 15:27N 01°15' E 103°53'0 0.0
2017-Jun-15 14:54N 01°15' E 103°53'0 0.0
2017-Jun-15 14:30N 01°15' E 103°53'1 0.9
2017-Jun-15 13:30N 01°14' E 103°53'2 3.5
2017-Jun-15 13:00N 01°12' E 103°53'3 6.9
2017-Jun-15 12:30N 01°11' E 103°50'3 6.2
2017-Jun-15 12:00N 01°09' E 103°47'3 6.4
2017-Jun-15 11:30N 01°07' E 103°45'4 7.3
2017-Jun-15 11:00N 01°04' E 103°42'4 8.4
2017-Jun-15 10:30N 01°03' E 103°38'510.0
2017-Jun-15 10:00N 01°05' E 103°34'611.1
2017-Jun-15 09:29N 01°08' E 103°29'713.5
2017-Jun-15 09:00N 01°12' E 103°24'6714.3
2017-Jun-15 04:18N 01°48' E 102°27'516.2
2017-Jun-15 03:59N 01°50' E 102°22'  

Dump ship's entire track history